Pagrindinis puslapis
METAR-TAF:

METAR-TAF

Oro uostai :

San Andresas, Kolumbija

platuma: 12-35N, ilguma: 081-43W, Aukštis: 1 m

Dabartinis oras

Ataskaita buvo paskelbta 59 minutes, ne 10:00 UTC
Vėjas 6 kt iš Šiaurės Rytų, svyruoja nuo Šiaurės ir Rytų
Temperatūra 24°C
Drėgmė 94%
Slėgis 1015 hPa
Išsisklaidę debesys ne aukštis 1500 ft
Išsisklaidę debesys ne aukštis 8000 ft
dulksna

METAR: SKSP 281000Z 04006KT 360V080 +DZ SCT015 SCT080 24/23 A2998

Laikas: 05:59 (10:59 UTC)

Prognozė

Ataskaita buvo paskelbta 6 valandos ir 29 minutes, ne 04:30 UTC
Prognozė galioja nuo 28 metu 06 UTC su 29 metu 06 UTC
Vėjas 8 kt iš Rytų
Matomumas 10 km arba daugiau
Mažai debesys ne aukštis 1700 ft

TAF: SKSP 280430Z 2806/2906 08008KT 9999 FEW017 TX31/2819Z TN26/2810Z

Orai ataskaitas ir orų prognozės (METAR, TAF).

turimą stotys yra geltonos ir raudonos taškus žemėlapyje.

Perkelti pele per norėdami pamatyti stoties vardą.

Tada spustelėkite, norėdami matyti oro stebėjimo ir prognozės.

Norėdami pakeisti žemėlapį: spustelėkite ant žalios mygtukų su juodo kryžiaus žemyn,; žalią mygtuką su brūkšneliu, jei norite nutolinti; arba žalių rodyklių gretimoms žemėlapius.


METAR-TAF: